Time;durP1;ratioP1;P1;durP2;ratioP2;P2;SDS_P1;SDS_P2;PMS_P1;PMS_P2;Temp;Humidity;BMP_temperature;BMP_pressure;BME280_temperature;BME280_humidity;BME280_pressure;Samples;Min_cycle;Max_cycle;Signal;HPM_P1;HPM_P2
2022/04/26 03:37:41;;;;;;;8.93;4.22;;;;;;;;;;5007797;28;20049;-87
2022/04/26 03:40:10;;;;;;;6.85;3.88;;;;;;;;;;5005230;28;20156;-87
2022/04/26 03:42:37;;;;;;;10.00;5.00;;;;;;;;;;5068172;28;20056;-87
2022/04/26 03:45:05;;;;;;;8.88;3.92;;;;;;;;;;5056841;28;20071;-87
2022/04/26 03:47:33;;;;;;;9.43;4.80;;;;;;;;;;5058947;28;20072;-87
2022/04/26 03:50:01;;;;;;;10.35;5.25;;;;;;;;;;5072052;28;20032;-86
2022/04/26 03:52:29;;;;;;;9.07;4.25;;;;;;;;;;5073081;28;20048;-86
2022/04/26 03:54:57;;;;;;;9.30;4.85;;;;;;;;;;5074192;28;20033;-86
2022/04/26 03:57:25;;;;;;;10.00;4.30;;;;;;;;;;5074126;28;20436;-86
2022/04/26 03:59:54;;;;;;;10.07;4.68;;;;;;;;;;5074625;28;22126;-86
2022/04/26 04:02:22;;;;;;;10.43;4.47;;;;;;;;;;5073196;28;20032;-86
2022/04/26 04:04:49;;;;;;;8.85;5.32;;;;;;;;;;5056091;28;20048;-86
2022/04/26 04:07:20;;;;;;;13.02;4.80;;;;;;;;;;5044395;28;20050;-86
2022/04/26 04:09:52;;;;;;;11.45;5.05;;;;;;;;;;5073792;28;20509;-86
2022/04/26 04:12:22;;;;;;;13.13;4.85;;;;;;;;;;5056460;28;20036;-86
2022/04/26 04:14:52;;;;;;;11.32;4.90;;;;;;;;;;5072276;28;20033;-86
2022/04/26 04:17:22;;;;;;;10.70;5.32;;;;;;;;;;5074631;28;21010;-86
2022/04/26 04:19:51;;;;;;;10.15;4.50;;;;;;;;;;5073990;28;20036;-86
2022/04/26 04:22:19;;;;;;;13.00;4.60;;;;;;;;;;5050489;28;20040;-86
2022/04/26 04:24:47;;;;;;;13.07;4.95;;;;;;;;;;5072440;28;20040;-86
2022/04/26 04:27:15;;;;;;;10.73;4.72;;;;;;;;;;5073815;28;20048;-86
2022/04/26 04:29:44;;;;;;;9.15;4.15;;;;;;;;;;5058592;28;20032;-86
2022/04/26 04:32:11;;;;;;;9.98;4.82;;;;;;;;;;5073487;28;20552;-86
2022/04/26 04:34:40;;;;;;;10.48;4.80;;;;;;;;;;5056073;28;20070;-86
2022/04/26 04:37:08;;;;;;;9.27;4.90;;;;;;;;;;5059956;28;20033;-86
2022/04/26 04:39:36;;;;;;;10.80;5.15;;;;;;;;;;5055951;28;20048;-86
2022/04/26 04:42:04;;;;;;;9.25;4.40;;;;;;;;;;5051892;28;20059;-86
2022/04/26 04:44:31;;;;;;;13.27;5.25;;;;;;;;;;5072836;28;20146;-87
2022/04/26 04:47:00;;;;;;;15.35;5.47;;;;;;;;;;5054237;28;20044;-87
2022/04/26 04:49:27;;;;;;;9.75;4.45;;;;;;;;;;5054597;28;20790;-78
2022/04/26 04:51:55;;;;;;;11.55;4.95;;;;;;;;;;5070394;28;20109;-77
2022/04/26 04:54:23;;;;;;;12.40;4.97;;;;;;;;;;5068860;28;20045;-87
2022/04/26 04:56:51;;;;;;;8.40;4.30;;;;;;;;;;5039492;28;21713;-86
2022/04/26 04:59:21;;;;;;;10.85;5.10;;;;;;;;;;5061735;28;20071;-87
2022/04/26 05:01:49;;;;;;;10.43;4.85;;;;;;;;;;5054879;28;20451;-88
2022/04/26 05:04:17;;;;;;;11.63;4.97;;;;;;;;;;5054057;28;20147;-88
2022/04/26 05:06:46;;;;;;;11.10;4.35;;;;;;;;;;5071552;28;20051;-88
2022/04/26 05:09:13;;;;;;;10.70;5.40;;;;;;;;;;5055207;28;20124;-88
2022/04/26 05:11:41;;;;;;;8.63;4.75;;;;;;;;;;5053410;28;20139;-88
2022/04/26 05:14:09;;;;;;;10.98;5.97;;;;;;;;;;5071246;28;20056;-88
2022/04/26 05:16:37;;;;;;;10.75;4.55;;;;;;;;;;5067912;28;20047;-88
2022/04/26 05:19:05;;;;;;;11.50;5.72;;;;;;;;;;5071670;28;20040;-89
2022/04/26 05:21:33;;;;;;;13.95;5.25;;;;;;;;;;5053747;28;20048;-88
2022/04/26 05:26:47;;;;;;;14.07;5.70;;;;;;;;;;5050291;28;20044;-78
2022/04/26 05:29:15;;;;;;;12.88;5.38;;;;;;;;;;5047549;28;20379;-80
2022/04/26 05:31:43;;;;;;;11.38;4.82;;;;;;;;;;5068471;28;20051;-79
2022/04/26 05:34:11;;;;;;;12.65;5.55;;;;;;;;;;5070019;28;20040;-79
2022/04/26 05:36:39;;;;;;;10.13;5.22;;;;;;;;;;5049053;28;20498;-80
2022/04/26 05:39:07;;;;;;;10.73;5.78;;;;;;;;;;5047847;28;20151;-77
2022/04/26 05:41:35;;;;;;;12.20;5.22;;;;;;;;;;5068917;28;20052;-78
2022/04/26 05:44:03;;;;;;;9.85;5.07;;;;;;;;;;5069898;28;20044;-78
2022/04/26 05:46:31;;;;;;;12.70;6.00;;;;;;;;;;5067303;28;20070;-78
2022/04/26 05:48:59;;;;;;;10.95;5.78;;;;;;;;;;5067799;28;20052;-78
2022/04/26 05:51:27;;;;;;;13.73;6.50;;;;;;;;;;5069549;28;20094;-78
2022/04/26 05:53:55;;;;;;;14.98;5.85;;;;;;;;;;5050415;28;20338;-78
2022/04/26 05:56:23;;;;;;;13.38;6.22;;;;;;;;;;5065899;28;20039;-78
2022/04/26 05:58:51;;;;;;;11.82;5.55;;;;;;;;;;5069595;28;20051;-78
2022/04/26 06:01:20;;;;;;;11.70;6.05;;;;;;;;;;5047828;28;20041;-78
2022/04/26 06:03:47;;;;;;;11.75;6.47;;;;;;;;;;5067494;28;20091;-77
2022/04/26 06:06:15;;;;;;;12.60;6.28;;;;;;;;;;5067244;28;20036;-77
2022/04/26 06:08:43;;;;;;;15.57;6.78;;;;;;;;;;5067279;28;20123;-77
2022/04/26 06:11:15;;;;;;;12.80;6.05;;;;;;;;;;5066687;28;20036;-76
2022/04/26 06:13:43;;;;;;;10.55;5.43;;;;;;;;;;5068211;28;20117;-78
2022/04/26 06:16:11;;;;;;;13.27;5.88;;;;;;;;;;5069180;28;20115;-78
2022/04/26 06:18:39;;;;;;;9.77;5.70;;;;;;;;;;5065766;28;20072;-78
2022/04/26 06:21:07;;;;;;;10.98;5.75;;;;;;;;;;5067567;28;20033;-78
2022/04/26 06:23:35;;;;;;;10.60;5.35;;;;;;;;;;5069814;28;20063;-79
2022/04/26 06:26:03;;;;;;;11.68;5.68;;;;;;;;;;5067426;28;20486;-79
2022/04/26 06:28:32;;;;;;;11.85;5.55;;;;;;;;;;5068090;28;20045;-79
2022/04/26 06:31:00;;;;;;;9.27;5.15;;;;;;;;;;5044749;28;20055;-79
2022/04/26 06:33:27;;;;;;;12.02;4.88;;;;;;;;;;5064723;28;20036;-79
2022/04/26 06:35:55;;;;;;;11.10;5.82;;;;;;;;;;5067815;28;20415;-78
2022/04/26 06:38:23;;;;;;;10.13;4.75;;;;;;;;;;5068096;28;20063;-78
2022/04/26 06:40:52;;;;;;;12.73;5.10;;;;;;;;;;5049644;28;20127;-78
2022/04/26 06:43:19;;;;;;;9.32;4.68;;;;;;;;;;5059855;28;20535;-79
2022/04/26 06:45:47;;;;;;;14.02;5.13;;;;;;;;;;5068636;28;20029;-78
2022/04/26 06:48:17;;;;;;;9.05;4.90;;;;;;;;;;5074502;28;20071;-79
2022/04/26 06:50:46;;;;;;;11.98;4.60;;;;;;;;;;5057445;28;20135;-79
2022/04/26 06:53:13;;;;;;;9.32;4.28;;;;;;;;;;5068484;28;20041;-79
2022/04/26 06:55:41;;;;;;;10.25;4.60;;;;;;;;;;5063235;28;20037;-79
2022/04/26 06:58:09;;;;;;;9.93;4.60;;;;;;;;;;5065117;28;20522;-78
2022/04/26 07:00:37;;;;;;;11.00;4.43;;;;;;;;;;5066272;28;20048;-79
2022/04/26 07:03:05;;;;;;;11.38;4.35;;;;;;;;;;5066731;28;20045;-79
2022/04/26 07:05:34;;;;;;;8.52;4.68;;;;;;;;;;5048098;28;20127;-78
2022/04/26 07:08:01;;;;;;;8.95;4.53;;;;;;;;;;5067228;28;20055;-80
2022/04/26 07:10:29;;;;;;;10.45;4.97;;;;;;;;;;5070883;28;20078;-78
2022/04/26 07:12:57;;;;;;;9.55;4.07;;;;;;;;;;5074227;28;20114;-78
2022/04/26 07:15:25;;;;;;;9.70;4.95;;;;;;;;;;5064547;28;20588;-77
2022/04/26 07:17:54;;;;;;;11.15;5.10;;;;;;;;;;5067032;28;20045;-79
2022/04/26 07:20:21;;;;;;;10.70;5.30;;;;;;;;;;5069305;28;20055;-79
2022/04/26 07:22:49;;;;;;;9.00;4.40;;;;;;;;;;5062684;28;20094;-79
2022/04/26 07:25:18;;;;;;;8.60;4.93;;;;;;;;;;5050017;28;20718;-78
2022/04/26 07:27:48;;;;;;;9.82;4.65;;;;;;;;;;5065957;28;20052;-78
2022/04/26 07:30:15;;;;;;;9.68;4.43;;;;;;;;;;5065234;28;20115;-79
2022/04/26 07:35:29;;;;;;;12.13;5.03;;;;;;;;;;5067383;28;20110;-79
2022/04/26 07:38:07;;;;;;;9.63;4.35;;;;;;;;;;5064574;28;20043;-78
2022/04/26 07:40:35;;;;;;;10.50;4.10;;;;;;;;;;5043763;28;20040;-79
2022/04/26 07:43:04;;;;;;;9.40;4.75;;;;;;;;;;5067639;28;20040;-79
2022/04/26 07:45:38;;;;;;;8.82;4.45;;;;;;;;;;5049902;28;20040;-79
2022/04/26 07:48:06;;;;;;;10.63;3.88;;;;;;;;;;5064416;28;20064;-78
2022/04/26 07:50:35;;;;;;;10.70;3.88;;;;;;;;;;5066758;28;20173;-78
2022/04/26 07:53:03;;;;;;;8.65;3.47;;;;;;;;;;5066248;28;20080;-79
2022/04/26 07:55:32;;;;;;;6.82;4.10;;;;;;;;;;5018709;28;20059;-78
2022/04/26 07:57:59;;;;;;;10.07;4.53;;;;;;;;;;5048468;28;20102;-79
2022/04/26 08:00:27;;;;;;;6.57;3.70;;;;;;;;;;5050481;28;20037;-79
2022/04/26 08:02:58;;;;;;;7.32;4.18;;;;;;;;;;5069600;28;20117;-79
2022/04/26 08:05:27;;;;;;;9.57;4.35;;;;;;;;;;5071561;28;20097;-79
2022/04/26 08:07:55;;;;;;;8.13;4.28;;;;;;;;;;5070442;28;20119;-79
2022/04/26 08:10:24;;;;;;;7.30;3.78;;;;;;;;;;5069771;28;20146;-79
2022/04/26 08:12:52;;;;;;;6.63;3.42;;;;;;;;;;5068660;28;20036;-80
2022/04/26 08:15:20;;;;;;;7.82;3.60;;;;;;;;;;5064954;28;20044;-80
2022/04/26 08:17:48;;;;;;;6.20;3.60;;;;;;;;;;5067599;28;20977;-80
2022/04/26 08:20:16;;;;;;;7.35;3.67;;;;;;;;;;5072153;28;20041;-80
2022/04/26 08:22:44;;;;;;;6.88;3.58;;;;;;;;;;5069329;28;20043;-79
2022/04/26 08:27:57;;;;;;;6.80;3.55;;;;;;;;;;5069771;28;20615;-80
2022/04/26 08:30:25;;;;;;;7.70;3.90;;;;;;;;;;5069954;28;20147;-80
2022/04/26 08:32:53;;;;;;;5.78;3.53;;;;;;;;;;5071101;28;20105;-79
2022/04/26 08:35:23;;;;;;;7.45;3.53;;;;;;;;;;5018592;28;20100;-80
2022/04/26 08:38:13;;;;;;;6.93;3.63;;;;;;;;;;5066928;28;20040;-80
2022/04/26 08:40:42;;;;;;;6.78;3.15;;;;;;;;;;5068875;28;20063;-80
2022/04/26 08:43:09;;;;;;;8.07;3.63;;;;;;;;;;5068131;28;20049;-80
2022/04/26 08:45:40;;;;;;;6.90;3.38;;;;;;;;;;5053796;28;20754;-80
2022/04/26 08:51:05;;;;;;;4.03;2.22;;;;;;;;;;5071326;28;20405;-80
2022/04/26 08:53:35;;;;;;;7.78;3.50;;;;;;;;;;5054292;28;20482;-80
2022/04/26 08:56:06;;;;;;;7.03;3.38;;;;;;;;;;5036946;28;20094;-80
2022/04/26 08:58:36;;;;;;;5.63;3.15;;;;;;;;;;5071066;28;20121;-79
2022/04/26 09:01:12;;;;;;;6.72;3.38;;;;;;;;;;5070116;28;20059;-81
2022/04/26 09:03:54;;;;;;;8.43;3.00;;;;;;;;;;5052917;28;20048;-80
2022/04/26 09:06:39;;;;;;;6.63;2.92;;;;;;;;;;5070861;28;20094;-80
2022/04/26 09:09:18;;;;;;;5.15;2.85;;;;;;;;;;5068724;28;20036;-80
2022/04/26 09:11:48;;;;;;;5.97;3.70;;;;;;;;;;5070071;28;20040;-80
2022/04/26 09:14:34;;;;;;;6.82;3.08;;;;;;;;;;5068574;28;20040;-80
2022/04/26 09:17:06;;;;;;;6.13;3.08;;;;;;;;;;5063912;28;20041;-80
2022/04/26 09:19:55;;;;;;;4.80;2.95;;;;;;;;;;5069390;28;20055;-80
2022/04/26 09:22:26;;;;;;;7.53;3.40;;;;;;;;;;5053599;28;20106;-81
2022/04/26 09:24:57;;;;;;;4.93;2.72;;;;;;;;;;5070442;28;20052;-80
2022/04/26 09:27:29;;;;;;;5.38;3.20;;;;;;;;;;5051546;28;20073;-80
2022/04/26 09:29:57;;;;;;;6.72;2.83;;;;;;;;;;5069696;28;20036;-80
2022/04/26 09:32:25;;;;;;;5.75;3.20;;;;;;;;;;5066298;28;20097;-80
2022/04/26 09:34:53;;;;;;;4.45;2.80;;;;;;;;;;5071459;28;20052;-80
2022/04/26 09:37:22;;;;;;;5.97;3.40;;;;;;;;;;5070157;28;20040;-80
2022/04/26 09:40:00;;;;;;;4.80;2.85;;;;;;;;;;5069366;28;20059;-80
2022/04/26 09:42:31;;;;;;;5.85;3.45;;;;;;;;;;5068935;28;20064;-80
2022/04/26 09:45:07;;;;;;;6.10;2.97;;;;;;;;;;5068423;28;20048;-80
2022/04/26 09:47:42;;;;;;;8.73;4.00;;;;;;;;;;5068007;28;20046;-80
2022/04/26 09:50:14;;;;;;;5.93;3.28;;;;;;;;;;5052104;28;20102;-79
2022/04/26 09:52:42;;;;;;;6.45;3.60;;;;;;;;;;5066836;28;20032;-79
2022/04/26 09:55:11;;;;;;;6.68;3.40;;;;;;;;;;5052262;28;20039;-80
2022/04/26 09:57:39;;;;;;;6.13;3.35;;;;;;;;;;5068708;28;20162;-80
2022/04/26 10:00:12;;;;;;;5.40;3.35;;;;;;;;;;5067343;28;20072;-81
2022/04/26 10:02:53;;;;;;;7.53;3.42;;;;;;;;;;5051668;28;20548;-80
2022/04/26 10:05:23;;;;;;;6.70;3.25;;;;;;;;;;5070811;28;20563;-80
2022/04/26 10:07:52;;;;;;;10.15;3.55;;;;;;;;;;5065994;28;20101;-78
2022/04/26 10:10:20;;;;;;;8.73;3.60;;;;;;;;;;5064290;28;20401;-78
2022/04/26 10:13:31;;;;;;;8.68;3.75;;;;;;;;;;5049728;28;20128;-78
2022/04/26 10:15:36;;;;;;;7.78;3.35;;;;;;;;;;5064306;28;20385;-78
2022/04/26 10:18:29;;;;;;;5.13;2.95;;;;;;;;;;5065371;28;20040;-78
2022/04/26 10:20:58;;;;;;;4.47;2.80;;;;;;;;;;5048308;28;20063;-78
2022/04/26 10:23:25;;;;;;;7.57;3.70;;;;;;;;;;5064558;28;20048;-78
2022/04/26 10:26:21;;;;;;;6.10;3.40;;;;;;;;;;5045037;28;20043;-78
2022/04/26 10:28:54;;;;;;;6.82;3.75;;;;;;;;;;5066370;28;20069;-78
2022/04/26 10:31:42;;;;;;;5.07;3.38;;;;;;;;;;5064396;28;20107;-78
2022/04/26 10:34:29;;;;;;;6.43;3.10;;;;;;;;;;5065596;28;20490;-78
2022/04/26 10:37:03;;;;;;;6.10;3.30;;;;;;;;;;5064707;28;20532;-78
2022/04/26 10:39:41;;;;;;;6.82;3.10;;;;;;;;;;5065313;28;20045;-78
2022/04/26 10:42:12;;;;;;;9.30;3.60;;;;;;;;;;5067512;28;20060;-78
2022/04/26 10:44:49;;;;;;;5.00;3.17;;;;;;;;;;5066929;28;20047;-78
2022/04/26 10:47:19;;;;;;;7.32;3.15;;;;;;;;;;5048488;28;20094;-78
2022/04/26 10:49:51;;;;;;;6.18;3.42;;;;;;;;;;5066408;28;20044;-78
2022/04/26 10:52:19;;;;;;;5.15;3.15;;;;;;;;;;5064547;28;20037;-78
2022/04/26 10:54:46;;;;;;;5.10;3.45;;;;;;;;;;5064047;28;20045;-78
2022/04/26 10:57:16;;;;;;;7.63;3.63;;;;;;;;;;5063914;28;20079;-78
2022/04/26 10:59:48;;;;;;;7.63;3.40;;;;;;;;;;5065980;28;20068;-78
2022/04/26 11:02:18;;;;;;;5.90;3.22;;;;;;;;;;5065543;28;20045;-78
2022/04/26 11:04:55;;;;;;;6.18;3.72;;;;;;;;;;5064825;28;20048;-78
2022/04/26 11:07:25;;;;;;;6.05;3.53;;;;;;;;;;5065703;28;20048;-78
2022/04/26 11:09:57;;;;;;;6.85;3.65;;;;;;;;;;5066456;28;20040;-78
2022/04/26 11:12:29;;;;;;;4.53;3.10;;;;;;;;;;5065661;28;20493;-78
2022/04/26 11:15:01;;;;;;;5.25;3.30;;;;;;;;;;5065905;28;20047;-78
2022/04/26 11:17:29;;;;;;;5.63;3.42;;;;;;;;;;5064871;28;20028;-78
2022/04/26 11:20:08;;;;;;;6.85;3.15;;;;;;;;;;5049299;28;20367;-78
2022/04/26 11:22:49;;;;;;;4.30;2.67;;;;;;;;;;5064234;28;20094;-78
2022/04/26 11:28:10;;;;;;;5.75;3.33;;;;;;;;;;5065907;28;20036;-78
2022/04/26 11:30:42;;;;;;;6.35;3.20;;;;;;;;;;5045422;28;20036;-79
2022/04/26 11:33:19;;;;;;;5.90;2.92;;;;;;;;;;5046577;28;20486;-78
2022/04/26 11:35:52;;;;;;;4.50;2.90;;;;;;;;;;5070075;28;20036;-77
2022/04/26 11:38:25;;;;;;;4.07;2.88;;;;;;;;;;5051227;28;20143;-78
2022/04/26 11:41:00;;;;;;;4.95;3.17;;;;;;;;;;5051473;28;20056;-78
2022/04/26 11:43:31;;;;;;;6.82;3.28;;;;;;;;;;5070537;28;20462;-78
2022/04/26 11:46:00;;;;;;;6.72;3.65;;;;;;;;;;5068912;28;20045;-78
2022/04/26 11:48:30;;;;;;;4.65;2.80;;;;;;;;;;5069768;28;20043;-78
2022/04/26 11:50:59;;;;;;;4.65;3.03;;;;;;;;;;5069453;28;20080;-78
2022/04/26 11:53:29;;;;;;;5.13;2.80;;;;;;;;;;5069463;28;20041;-77
2022/04/26 11:55:56;;;;;;;6.00;3.22;;;;;;;;;;5071205;28;20036;-78
2022/04/26 11:58:27;;;;;;;5.30;3.13;;;;;;;;;;5070780;28;20047;-78
2022/04/26 12:01:09;;;;;;;6.45;3.42;;;;;;;;;;5070560;28;20043;-78
2022/04/26 12:03:49;;;;;;;5.03;2.85;;;;;;;;;;5055392;28;20040;-78
2022/04/26 12:06:24;;;;;;;4.70;2.80;;;;;;;;;;5071602;28;20136;-78
2022/04/26 12:09:04;;;;;;;6.00;3.22;;;;;;;;;;5069583;28;20082;-78
2022/04/26 12:11:38;;;;;;;5.13;3.13;;;;;;;;;;5052746;28;20044;-78
2022/04/26 12:14:08;;;;;;;4.97;3.08;;;;;;;;;;5070552;28;20127;-78
2022/04/26 12:16:40;;;;;;;4.90;3.08;;;;;;;;;;5049483;28;20110;-77
2022/04/26 12:19:09;;;;;;;5.25;2.88;;;;;;;;;;5072854;28;20055;-78
2022/04/26 12:21:46;;;;;;;5.38;3.65;;;;;;;;;;5070309;28;20044;-78
2022/04/26 12:24:22;;;;;;;5.93;3.22;;;;;;;;;;5063219;28;20067;-78
2022/04/26 12:26:55;;;;;;;8.43;3.40;;;;;;;;;;5050623;28;20094;-78
2022/04/26 12:29:24;;;;;;;5.97;3.17;;;;;;;;;;5050544;28;20066;-77
2022/04/26 12:31:53;;;;;;;9.38;3.10;;;;;;;;;;5068414;28;20434;-78
2022/04/26 12:34:29;;;;;;;4.18;2.50;;;;;;;;;;5068971;28;20098;-78
2022/04/26 12:37:07;;;;;;;5.97;3.50;;;;;;;;;;5049108;28;20452;-78
2022/04/26 12:39:48;;;;;;;5.30;3.38;;;;;;;;;;5033084;28;20898;-78
2022/04/26 12:42:27;;;;;;;5.88;3.40;;;;;;;;;;5068831;28;20044;-77
2022/04/26 12:45:01;;;;;;;5.45;3.22;;;;;;;;;;5068068;28;20105;-78
2022/04/26 12:50:28;;;;;;;5.22;2.50;;;;;;;;;;5067636;28;20049;-78
2022/04/26 12:53:24;;;;;;;7.22;3.60;;;;;;;;;;5069003;28;20049;-78
2022/04/26 12:55:53;;;;;;;;;;;;;;;;;;5067873;28;20049;-78
2022/04/26 12:58:36;;;;;;;7.18;2.80;;;;;;;;;;5068247;28;19929;-78
2022/04/26 13:01:06;;;;;;;6.45;3.13;;;;;;;;;;5066207;28;20063;-77
2022/04/26 13:03:35;;;;;;;7.53;3.58;;;;;;;;;;5067887;28;20032;-80
2022/04/26 13:06:11;;;;;;;5.70;3.20;;;;;;;;;;5051201;28;20163;-78
2022/04/26 13:08:58;;;;;;;;;;;;;;;;;;5054394;28;20040;-79
2022/04/26 13:11:32;;;;;;;4.90;2.88;;;;;;;;;;5067079;28;19924;-78
2022/04/26 13:14:00;;;;;;;5.68;2.97;;;;;;;;;;5049459;28;20044;-79
2022/04/26 13:16:28;;;;;;;6.28;3.40;;;;;;;;;;5065140;28;20040;-80
2022/04/26 13:18:56;;;;;;;5.55;3.83;;;;;;;;;;5050306;28;20523;-78
2022/04/26 13:21:24;;;;;;;4.38;2.75;;;;;;;;;;5048729;28;20068;-78
2022/04/26 13:23:57;;;;;;;6.38;2.80;;;;;;;;;;5049775;28;20044;-78
2022/04/26 13:26:25;;;;;;;7.10;3.25;;;;;;;;;;5062891;28;20052;-79
2022/04/26 13:28:52;;;;;;;7.10;3.08;;;;;;;;;;5053307;28;20128;-80
2022/04/26 13:31:20;;;;;;;4.63;2.83;;;;;;;;;;5071810;28;20044;-80
2022/04/26 13:33:48;;;;;;;5.82;3.60;;;;;;;;;;5058455;28;20052;-81
2022/04/26 13:36:17;;;;;;;9.55;3.67;;;;;;;;;;5055717;28;20059;-80
2022/04/26 13:38:44;;;;;;;7.43;4.72;;;;;;;;;;5072800;28;20058;-80
2022/04/26 13:41:12;;;;;;;5.32;3.25;;;;;;;;;;5039038;28;20044;-81
2022/04/26 13:43:42;;;;;;;7.00;3.50;;;;;;;;;;5074061;28;20671;-81
2022/04/26 13:46:19;;;;;;;5.70;3.03;;;;;;;;;;5073709;28;20040;-81
2022/04/26 13:48:47;;;;;;;5.40;2.92;;;;;;;;;;5054090;28;20059;-81
2022/04/26 13:51:14;;;;;;;5.75;2.80;;;;;;;;;;5074630;28;20032;-82
2022/04/26 13:53:42;;;;;;;7.30;2.90;;;;;;;;;;5038891;28;20067;-81
2022/04/26 13:56:10;;;;;;;4.10;2.72;;;;;;;;;;5055944;28;20397;-81
2022/04/26 13:58:39;;;;;;;5.75;2.65;;;;;;;;;;5056380;28;20055;-81
2022/04/26 14:01:06;;;;;;;7.50;2.80;;;;;;;;;;5072667;28;20044;-80
2022/04/26 14:03:34;;;;;;;6.15;2.88;;;;;;;;;;5075261;28;20040;-83
2022/04/26 14:06:02;;;;;;;6.47;2.70;;;;;;;;;;5057460;28;20097;-82
2022/04/26 14:08:31;;;;;;;6.40;2.55;;;;;;;;;;5074047;28;20036;-80
2022/04/26 14:10:58;;;;;;;4.32;2.72;;;;;;;;;;5054834;28;20040;-81
2022/04/26 14:21:47;;;;;;;7.07;2.90;;;;;;;;;;5072190;28;20049;-81
2022/04/26 14:21:58;;;;;;;7.95;2.58;;;;;;;;;;5071824;28;20040;-81
2022/04/26 14:24:26;;;;;;;8.82;3.30;;;;;;;;;;5054299;28;20037;-81
2022/04/26 14:26:54;;;;;;;5.68;3.00;;;;;;;;;;5058067;28;20048;-81
2022/04/26 14:29:22;;;;;;;7.75;3.22;;;;;;;;;;5073139;28;20041;-81
2022/04/26 14:31:51;;;;;;;4.45;2.95;;;;;;;;;;5072610;28;20049;-81
2022/04/26 14:34:18;;;;;;;8.07;3.55;;;;;;;;;;5037818;28;20051;-81
2022/04/26 14:36:46;;;;;;;5.70;3.67;;;;;;;;;;5071723;28;20037;-81
2022/04/26 14:39:22;;;;;;;6.47;3.65;;;;;;;;;;5072560;28;20036;-81
2022/04/26 14:41:51;;;;;;;7.95;3.47;;;;;;;;;;5072642;28;20105;-81
2022/04/26 14:44:18;;;;;;;6.15;3.25;;;;;;;;;;5071485;28;20101;-81
2022/04/26 14:46:46;;;;;;;7.55;3.40;;;;;;;;;;5072249;28;20040;-81
2022/04/26 14:49:14;;;;;;;5.30;3.13;;;;;;;;;;5070708;28;20029;-81
2022/04/26 14:51:42;;;;;;;6.13;3.00;;;;;;;;;;5072976;28;20420;-81
2022/04/26 14:54:10;;;;;;;6.38;3.90;;;;;;;;;;5073524;28;20047;-82
2022/04/26 14:56:38;;;;;;;6.55;3.63;;;;;;;;;;5071311;28;20064;-81
2022/04/26 14:59:19;;;;;;;6.57;3.95;;;;;;;;;;5054300;28;20478;-81
2022/04/26 15:01:49;;;;;;;7.45;2.90;;;;;;;;;;5070789;28;20079;-81
2022/04/26 15:04:17;;;;;;;6.15;3.53;;;;;;;;;;5070986;28;20102;-81
2022/04/26 15:06:45;;;;;;;6.93;3.00;;;;;;;;;;5071155;28;20066;-81
2022/04/26 15:17:35;;;;;;;5.63;3.50;;;;;;;;;;5057693;28;20032;-81
2022/04/26 15:20:03;;;;;;;6.38;3.83;;;;;;;;;;5055144;28;20040;-80
2022/04/26 15:22:30;;;;;;;6.50;3.35;;;;;;;;;;5076014;28;20037;-81
2022/04/26 15:24:58;;;;;;;8.50;3.50;;;;;;;;;;5075623;28;20055;-80
2022/04/26 15:27:26;;;;;;;5.28;3.10;;;;;;;;;;5058224;28;20032;-80
2022/04/26 15:29:54;;;;;;;6.22;3.30;;;;;;;;;;5059987;28;20128;-80
2022/04/26 15:32:23;;;;;;;5.65;3.53;;;;;;;;;;5056749;28;20079;-79
2022/04/26 15:34:50;;;;;;;6.32;3.15;;;;;;;;;;5072349;28;20044;-81
2022/04/26 15:37:19;;;;;;;6.43;3.60;;;;;;;;;;5076320;28;20043;-81
2022/04/26 15:39:47;;;;;;;6.10;2.83;;;;;;;;;;5071806;28;20047;-80
2022/04/26 15:42:18;;;;;;;5.00;3.10;;;;;;;;;;5074950;28;20037;-80
2022/04/26 15:44:46;;;;;;;6.07;2.95;;;;;;;;;;5056605;28;20051;-81
2022/04/26 15:47:15;;;;;;;6.60;3.90;;;;;;;;;;5058272;28;20039;-81
2022/04/26 15:49:45;;;;;;;5.90;2.97;;;;;;;;;;5072772;28;20037;-80
2022/04/26 15:52:13;;;;;;;5.05;2.65;;;;;;;;;;5058724;28;20045;-80
2022/04/26 15:54:43;;;;;;;6.03;2.97;;;;;;;;;;5049401;28;20109;-80
2022/04/26 15:57:11;;;;;;;6.15;3.25;;;;;;;;;;5054154;28;20060;-80
2022/04/26 15:59:39;;;;;;;5.70;3.30;;;;;;;;;;5072671;28;20032;-80
2022/04/26 16:02:07;;;;;;;6.47;3.20;;;;;;;;;;5072980;28;20055;-80
2022/04/26 16:04:36;;;;;;;5.55;3.25;;;;;;;;;;5073462;28;20039;-79
2022/04/26 16:07:04;;;;;;;5.35;3.03;;;;;;;;;;5056051;28;20060;-82
2022/04/26 16:20:42;;;;;;;4.85;2.80;;;;;;;;;;5057296;28;20546;-80
2022/04/26 16:23:10;;;;;;;6.97;3.50;;;;;;;;;;5075657;28;20059;-80
2022/04/26 16:25:38;;;;;;;6.82;3.00;;;;;;;;;;5073525;28;20123;-80
2022/04/26 16:28:06;;;;;;;6.05;2.80;;;;;;;;;;5075295;28;20462;-80
2022/04/26 16:30:35;;;;;;;5.93;2.78;;;;;;;;;;5075092;28;20063;-80
2022/04/26 16:33:04;;;;;;;6.45;2.97;;;;;;;;;;5075116;28;20100;-80
2022/04/26 16:35:32;;;;;;;5.20;2.80;;;;;;;;;;5042600;28;20059;-81
2022/04/26 16:38:01;;;;;;;5.25;2.97;;;;;;;;;;5056343;28;20127;-79
2022/04/26 16:40:28;;;;;;;5.32;2.97;;;;;;;;;;5055393;28;20037;-79
2022/04/26 16:42:56;;;;;;;7.72;2.92;;;;;;;;;;5071859;28;20423;-79
2022/04/26 16:45:24;;;;;;;5.15;2.72;;;;;;;;;;5054051;28;20040;-80
2022/04/26 16:47:53;;;;;;;4.95;3.00;;;;;;;;;;5069426;28;20090;-79
2022/04/26 16:50:21;;;;;;;4.93;2.90;;;;;;;;;;5071582;28;20060;-79
2022/04/26 16:52:49;;;;;;;7.13;3.10;;;;;;;;;;5057626;28;20040;-80
2022/04/26 16:55:16;;;;;;;8.25;2.88;;;;;;;;;;5070148;28;20050;-79
2022/04/26 16:57:47;;;;;;;5.05;3.00;;;;;;;;;;5055289;28;20106;-80
2022/04/26 17:00:17;;;;;;;7.18;3.30;;;;;;;;;;5056645;28;20442;-80
2022/04/26 17:02:44;;;;;;;9.30;2.95;;;;;;;;;;5051238;28;20056;-79
2022/04/26 17:05:21;;;;;;;10.60;3.42;;;;;;;;;;5037022;28;20534;-79
2022/04/26 17:07:50;;;;;;;8.60;3.13;;;;;;;;;;5073436;28;20044;-80
2022/04/26 17:10:22;;;;;;;6.47;3.67;;;;;;;;;;5042241;28;20393;-78
2022/04/26 17:12:53;;;;;;;6.75;3.70;;;;;;;;;;5051765;28;20504;-78
2022/04/26 17:15:21;;;;;;;8.80;3.97;;;;;;;;;;5070913;28;20127;-79
2022/04/26 17:17:49;;;;;;;7.72;3.85;;;;;;;;;;5052439;28;20063;-79
2022/04/26 17:20:23;;;;;;;9.25;3.63;;;;;;;;;;5069801;28;20032;-80
2022/04/26 17:22:51;;;;;;;5.15;2.92;;;;;;;;;;5032360;28;20045;-81
2022/04/26 17:25:18;;;;;;;7.75;3.50;;;;;;;;;;5052249;28;20306;-80
2022/04/26 17:28:10;;;;;;;7.60;3.65;;;;;;;;;;5070663;28;20040;-80
2022/04/26 17:30:38;;;;;;;4.65;3.03;;;;;;;;;;5049085;28;20040;-80
2022/04/26 17:33:07;;;;;;;7.80;3.00;;;;;;;;;;5069361;28;20043;-80
2022/04/26 17:35:34;;;;;;;5.07;3.00;;;;;;;;;;5071024;28;20116;-79
2022/04/26 17:38:02;;;;;;;4.68;2.92;;;;;;;;;;5038986;28;20511;-79
2022/04/26 17:40:34;;;;;;;6.03;3.95;;;;;;;;;;5049482;28;20047;-79
2022/04/26 17:43:05;;;;;;;8.15;3.72;;;;;;;;;;5071739;28;20043;-79
2022/04/26 17:45:35;;;;;;;5.95;3.05;;;;;;;;;;5035507;28;20107;-79
2022/04/26 17:48:02;;;;;;;7.57;3.28;;;;;;;;;;5050593;28;20040;-80
2022/04/26 17:50:30;;;;;;;6.38;2.90;;;;;;;;;;5051476;28;20028;-79
2022/04/26 17:58:31;;;;;;;6.88;3.45;;;;;;;;;;5068993;28;20504;-80
2022/04/26 18:01:00;;;;;;;5.97;3.45;;;;;;;;;;5052280;28;20041;-79
2022/04/26 18:03:30;;;;;;;7.57;3.67;;;;;;;;;;5029252;28;20041;-80
2022/04/26 18:05:59;;;;;;;6.63;3.72;;;;;;;;;;5064096;28;20106;-79
2022/04/26 18:08:40;;;;;;;7.75;3.47;;;;;;;;;;5038391;28;20647;-82
2022/04/26 18:11:11;;;;;;;7.80;3.60;;;;;;;;;;5038779;28;20040;-81
2022/04/26 18:13:41;;;;;;;9.32;3.97;;;;;;;;;;5053083;28;20049;-81
2022/04/26 18:16:15;;;;;;;5.93;3.35;;;;;;;;;;5037865;28;20052;-82
2022/04/26 18:18:43;;;;;;;4.97;3.45;;;;;;;;;;5069916;28;20039;-81
2022/04/26 18:21:24;;;;;;;13.45;3.63;;;;;;;;;;5040696;28;20110;-81
2022/04/26 18:24:02;;;;;;;7.43;4.25;;;;;;;;;;5039087;28;20619;-81
2022/04/26 18:26:38;;;;;;;8.90;3.92;;;;;;;;;;5054186;28;20091;-81
2022/04/26 18:29:19;;;;;;;6.10;3.50;;;;;;;;;;5052684;28;20057;-79
2022/04/26 18:31:55;;;;;;;4.85;3.10;;;;;;;;;;5038845;28;20044;-81
2022/04/26 18:34:36;;;;;;;8.02;3.60;;;;;;;;;;5036089;28;20051;-80
2022/04/26 18:37:04;;;;;;;6.65;3.85;;;;;;;;;;5045006;28;20350;-78
2022/04/26 18:39:32;;;;;;;6.65;3.55;;;;;;;;;;5066856;28;20028;-78
2022/04/26 18:42:00;;;;;;;7.95;3.38;;;;;;;;;;5060763;28;20055;-78
2022/04/26 18:44:28;;;;;;;7.13;4.00;;;;;;;;;;5065165;28;20036;-79
2022/04/26 18:46:57;;;;;;;6.25;3.50;;;;;;;;;;5067867;28;20044;-79
2022/04/26 18:49:28;;;;;;;7.35;4.10;;;;;;;;;;5037910;28;20067;-80
2022/04/26 18:51:58;;;;;;;6.30;4.00;;;;;;;;;;5035507;28;20503;-80
2022/04/26 18:54:26;;;;;;;5.40;3.00;;;;;;;;;;5050938;28;20135;-79
2022/04/26 18:56:54;;;;;;;7.05;3.42;;;;;;;;;;5052428;28;20040;-79
2022/04/26 18:59:23;;;;;;;6.35;3.47;;;;;;;;;;5053130;28;20043;-80
2022/04/26 19:01:50;;;;;;;6.30;3.47;;;;;;;;;;5034783;28;20048;-79
2022/04/26 19:04:18;;;;;;;7.82;3.58;;;;;;;;;;5049987;28;20033;-79
2022/04/26 19:06:46;;;;;;;8.00;3.13;;;;;;;;;;5050766;28;20044;-79
2022/04/26 19:09:14;;;;;;;7.78;4.03;;;;;;;;;;5066306;28;20106;-79
2022/04/26 19:14:30;;;;;;;6.20;3.47;;;;;;;;;;5057254;28;20386;-83
2022/04/26 19:16:58;;;;;;;8.65;4.00;;;;;;;;;;5036311;28;20090;-82
2022/04/26 19:19:26;;;;;;;7.35;3.88;;;;;;;;;;5038222;28;20040;-81
2022/04/26 19:21:54;;;;;;;6.20;3.42;;;;;;;;;;5070605;28;20664;-79
2022/04/26 19:24:26;;;;;;;6.75;3.50;;;;;;;;;;5069070;28;20048;-80
2022/04/26 19:26:55;;;;;;;7.97;3.80;;;;;;;;;;5049243;28;20047;-81